Terminal Aerodrome Forecast
Issued by NWS

Home | Current Version | Previous Version | Text Only | Print | Product List | Glossary On
Versions: 1 2 3 4 5 6 7 8 9 10 11 12 13
000
FTUS44 KTSA 201700
TAFFYV
TAF
KFYV 201739Z 2018/2118 17010G16KT P6SM SCT050 BKN100
     FM210300 16003KT P6SM VCSH BKN050 OVC100
     FM210600 18003KT 6SM -SHRA SCT025 OVC040 PROB30 2109/2110 4SM
      -TSRA BKN025 OVC040CB
     FM211000 18005KT 4SM -SHRA OVC015
     FM211600 24007KT P6SM OVC025=

USA.gov is the U.S. government's official web portal to all federal, state and local government web resources and services.